Lashburn, Canada
Current Conditions -  °F | °C
As of 4:00 AM on Thursday 27 Nov 2014 (Local Time) from CYLL Reporting Station
Overcast Overcast  
Wind Chill:   Ceiling: 1100
Heat Index: 12°   Visibility: 9mi
Dew Point: 10°   Wind: 9mph
Humidity: 92%   Direction: 80°E
Pressure: 30.07"   Gusts: NA
Location:  53.12°N, 109.61°W
Report Text: CYLL 271000Z AUTO 08008KT 9SM OVC011 M11/M12 A3007 RMK SLP238
Loading
Personal Weather Stations






























Interactive Weather Map New forecast layout! Learn more

10-Day Weather Forecast

Advertisements
Track Severe Weather on mobile